National Weather Service United States Department of Commerce

 

 


000
FTPA31 PHFO 250853 AAA
TAFSTU
TAF AMD
NSTU 250853Z 2509/2606 01010KT 3SM SHRA BR BKN015 OVC040
TEMPO 2509/2510 VRB10G20KT 1/2SM +SHRA VV008
FM251200 01010KT P6SM VCSH SCT015 BKN040 OVC100
FM252100 36010KT P6SM VCSH SCT015 BKN040 OVC100=


483
SAZS31 NSTU 251000
MTRPPG
METAR NSTU 250950Z VRB05KT 8SM -SHRA BKN015TCU OVC038 24/24 A2978
RMK TCU ALQDS SLP085 T02410241=


METAR Formatted Surface Weather Observation  Issued: 01/24/2021 11:00:32 PM SST

NSTU Observation History

 

Significant Weather Charts